Historyczne dane pomiarowe

Dodano dane terminowe – wersja testowa.

Dane z okresu 1951-2019

Wersja bazy: 1.34 [2019-03-16, lista zmian], aktualizacja planowana na 2019-04-15

Dane meteo z obszaru Polski uzyskane na podstawie danych udostępnionych przez Instytut Meteorologii i Gospodarki Wodnej – Państwowy Instytut Badawczy.

 

Wybierz Datę:    

       

TemperaturaWilgotnośćWiatrCiśnienieOpadyŚniegCzas trwania zjawisk
 Stacja t tx tn tng RH VA  wxwx mslp ppp RRR   cm mm wxwxwxwxwxwxwx
1991-02-14 -5.3 -3.2 -7.1- 78.8- 6.7 2.3---- 0.0-- 43---------
1991-02-15 -7.0 -3.0 -9.9- 73.3- 5.7 3.0---- 0.0-- 40---------
1991-02-16 -9.5 -6.1-13.6- 84.3- 7.7 2.0---- 1.4-- 38---------
1991-02-17 -4.8 -1.4 -9.8- 87.8- 5.3 2.7---- 0.2-- 42---------
1991-02-18 -1.2 1.8 -4.4- 80.3- 6.7 2.7---- 0.0-- 41---------
1991-02-19 -4.7 2.3-12.3- 83.8- 5.7 1.3---- 0.0-- 38---------
1991-02-20 -0.8 3.4 -5.4- 81.3- 7.3 1.3---- 0.0-- 32---------
1991-02-21 -0.6 5.1 -6.0- 86.3- 5.3 1.0---- 0.0-- 27---------
1991-02-22 1.0 8.7 -5.1- 78.5- 5.3 1.0---- 0.0-- 22---------
1991-02-23 3.4 8.4 0.4- 77.0- 5.7 1.3---- 0.2-- 15---------
1991-02-24 4.7 7.0 2.8- 89.5- 8.0 1.7---- 0.0-- 7---------
1991-02-25 4.8 10.4 -2.0- 79.8- 6.3 1.3---- 0.1-- 4---------
1991-02-26 3.5 6.6 1.8- 86.0- 7.0 2.0---- 0.1------------
1991-02-27 -0.2 1.8 -1.2- 83.0- 7.0 2.7---- 0.0------------
1991-02-28 -0.5 1.0 -1.6- 89.0- 8.0 1.3---- 0.0-- 1---------
1991-03-01 -1.2 3.6 -5.4- 86.3- 5.0 1.3---- 0.0------------
1991-03-02 -0.4 5.2 -5.2- 84.3- 6.0 1.7---- 0.0------------
1991-03-03 1.8 6.4 -1.5- 84.8- 8.0 1.0---- 0.0------------
1991-03-04 4.3 9.1 -0.3- 82.3- 7.0 1.7---- 0.0------------
1991-03-05 4.4 6.4 2.2- 81.8- 8.0 1.0---- 0.0------------
1991-03-06 0.8 5.1 -2.1- 86.0- 6.3 2.0---- 0.0------------
1991-03-07 2.4 10.1 -3.4- 78.3- 5.7 1.7---- 0.0------------
1991-03-08 5.5 14.8 -1.1- 81.0- 7.0 1.7---- 0.0------------
1991-03-09 6.0 13.8 0.8- 81.3- 7.3 1.0---- 0.0------------
1991-03-10 1.9 6.8 -1.4- 91.5- 7.7 1.0---- 0.0------------
1991-03-11 4.4 8.2 0.8- 95.0- 8.0 1.3---- 0.0------------
1991-03-12 7.7 12.8 3.0- 80.5- 7.0 1.3---- 0.1------------
1991-03-13 8.9 13.8 5.2- 75.5- 7.0 1.7---- 0.0------------
1991-03-14 7.5 15.8 1.0- 78.5- 6.0 1.7---- 0.0------------
1991-03-15 10.8 18.1 4.4- 64.8- 4.7 2.3---- 0.0------------
156.1 ms

 

Źródłem pochodzenia danych jest Instytut Meteorologii i Gospodarki Wodnej – Państwowy Instytut Badawczy. Dane Instytutu Meteorologii i Gospodarki Wodnej – Państwowego Instytutu Badawczego zostały przetworzone.

Dane źródłowe można odnaleźć na stronie https://dane.imgw.pl